sensor_id;sensor_type;location;lat;lon;timestamp;temperature;humidity
26964;DHT22;14521;48.148;-1.656;2022-07-23T00:00:04;25.70;82.00
26964;DHT22;14521;48.148;-1.656;2022-07-23T00:03:27;25.70;82.20
26964;DHT22;14521;48.148;-1.656;2022-07-23T00:06:49;25.70;81.90
26964;DHT22;14521;48.148;-1.656;2022-07-23T00:10:11;25.70;81.90
26964;DHT22;14521;48.148;-1.656;2022-07-23T00:13:34;25.60;81.90
26964;DHT22;14521;48.148;-1.656;2022-07-23T00:16:56;25.60;81.00
26964;DHT22;14521;48.148;-1.656;2022-07-23T00:20:19;25.70;81.20
26964;DHT22;14521;48.148;-1.656;2022-07-23T00:23:41;25.70;81.40
26964;DHT22;14521;48.148;-1.656;2022-07-23T00:27:03;25.70;81.40
26964;DHT22;14521;48.148;-1.656;2022-07-23T00:30:26;25.70;82.30
26964;DHT22;14521;48.148;-1.656;2022-07-23T00:33:51;25.70;81.40
26964;DHT22;14521;48.148;-1.656;2022-07-23T00:37:14;25.70;81.70
26964;DHT22;14521;48.148;-1.656;2022-07-23T00:40:37;25.70;81.90
26964;DHT22;14521;48.148;-1.656;2022-07-23T00:44:19;25.80;81.80
26964;DHT22;14521;48.148;-1.656;2022-07-23T00:47:42;25.60;81.90
26964;DHT22;14521;48.148;-1.656;2022-07-23T00:51:04;25.40;81.70
26964;DHT22;14521;48.148;-1.656;2022-07-23T00:58:16;25.40;80.70
26964;DHT22;14521;48.148;-1.656;2022-07-23T01:01:39;25.40;80.50
26964;DHT22;14521;48.148;-1.656;2022-07-23T01:05:02;25.40;80.30
26964;DHT22;14521;48.148;-1.656;2022-07-23T01:08:24;25.30;80.20
26964;DHT22;14521;48.148;-1.656;2022-07-23T01:11:46;25.30;80.30
26964;DHT22;14521;48.148;-1.656;2022-07-23T01:15:09;25.20;80.20
26964;DHT22;14521;48.148;-1.656;2022-07-23T01:18:31;25.20;80.00
26964;DHT22;14521;48.148;-1.656;2022-07-23T01:21:55;25.20;80.20
26964;DHT22;14521;48.148;-1.656;2022-07-23T01:25:19;25.10;80.00
26964;DHT22;14521;48.148;-1.656;2022-07-23T01:28:49;25.10;80.00
26964;DHT22;14521;48.148;-1.656;2022-07-23T01:32:11;25.10;79.90
26964;DHT22;14521;48.148;-1.656;2022-07-23T01:35:33;25.10;79.80
26964;DHT22;14521;48.148;-1.656;2022-07-23T01:38:59;25.00;79.90
26964;DHT22;14521;48.148;-1.656;2022-07-23T01:42:22;25.00;80.00
26964;DHT22;14521;48.148;-1.656;2022-07-23T01:45:45;25.00;80.10
26964;DHT22;14521;48.148;-1.656;2022-07-23T01:49:08;24.90;79.90
26964;DHT22;14521;48.148;-1.656;2022-07-23T01:52:49;24.90;79.90
26964;DHT22;14521;48.148;-1.656;2022-07-23T01:56:12;24.90;80.00
26964;DHT22;14521;48.148;-1.656;2022-07-23T01:59:34;24.90;79.90
26964;DHT22;14521;48.148;-1.656;2022-07-23T02:02:58;24.90;79.80
26964;DHT22;14521;48.148;-1.656;2022-07-23T02:06:22;24.90;79.80
26964;DHT22;14521;48.148;-1.656;2022-07-23T02:09:45;24.80;79.80
26964;DHT22;14521;48.148;-1.656;2022-07-23T02:13:07;24.90;79.70
26964;DHT22;14521;48.148;-1.656;2022-07-23T02:16:29;24.90;79.60
26964;DHT22;14521;48.148;-1.656;2022-07-23T02:19:56;24.90;79.60
26964;DHT22;14521;48.148;-1.656;2022-07-23T02:23:19;24.90;79.40
26964;DHT22;14521;48.148;-1.656;2022-07-23T02:26:41;24.80;79.40
26964;DHT22;14521;48.148;-1.656;2022-07-23T02:30:04;24.80;79.40
26964;DHT22;14521;48.148;-1.656;2022-07-23T02:33:28;24.90;79.30
26964;DHT22;14521;48.148;-1.656;2022-07-23T02:36:50;24.90;79.50
26964;DHT22;14521;48.148;-1.656;2022-07-23T02:40:13;24.90;79.30
26964;DHT22;14521;48.148;-1.656;2022-07-23T02:43:37;24.80;79.30
26964;DHT22;14521;48.148;-1.656;2022-07-23T02:46:59;24.80;79.10
26964;DHT22;14521;48.148;-1.656;2022-07-23T02:50:21;24.80;79.10
26964;DHT22;14521;48.148;-1.656;2022-07-23T02:53:44;24.80;79.10
26964;DHT22;14521;48.148;-1.656;2022-07-23T02:57:07;24.70;79.00
26964;DHT22;14521;48.148;-1.656;2022-07-23T03:00:29;24.70;79.10
26964;DHT22;14521;48.148;-1.656;2022-07-23T03:03:52;24.70;79.00
26964;DHT22;14521;48.148;-1.656;2022-07-23T03:07:17;24.70;78.90
26964;DHT22;14521;48.148;-1.656;2022-07-23T03:10:39;24.70;78.90
26964;DHT22;14521;48.148;-1.656;2022-07-23T03:14:02;24.70;78.90
26964;DHT22;14521;48.148;-1.656;2022-07-23T03:17:25;24.70;79.60
26964;DHT22;14521;48.148;-1.656;2022-07-23T03:20:47;24.70;78.80
26964;DHT22;14521;48.148;-1.656;2022-07-23T03:24:10;24.70;78.70
26964;DHT22;14521;48.148;-1.656;2022-07-23T03:27:32;24.70;78.80
26964;DHT22;14521;48.148;-1.656;2022-07-23T03:30:54;24.60;78.70
26964;DHT22;14521;48.148;-1.656;2022-07-23T03:34:16;24.60;78.70
26964;DHT22;14521;48.148;-1.656;2022-07-23T03:37:40;24.60;78.70
26964;DHT22;14521;48.148;-1.656;2022-07-23T03:41:02;24.60;78.70
26964;DHT22;14521;48.148;-1.656;2022-07-23T03:44:27;24.50;78.70
26964;DHT22;14521;48.148;-1.656;2022-07-23T03:47:49;24.50;78.80
26964;DHT22;14521;48.148;-1.656;2022-07-23T03:51:12;24.50;78.80
26964;DHT22;14521;48.148;-1.656;2022-07-23T03:54:35;24.50;78.70
26964;DHT22;14521;48.148;-1.656;2022-07-23T03:57:57;24.40;78.60
26964;DHT22;14521;48.148;-1.656;2022-07-23T04:01:19;24.40;78.70
26964;DHT22;14521;48.148;-1.656;2022-07-23T04:04:41;24.40;78.70
26964;DHT22;14521;48.148;-1.656;2022-07-23T04:08:04;24.40;78.70
26964;DHT22;14521;48.148;-1.656;2022-07-23T04:11:27;24.40;78.50
26964;DHT22;14521;48.148;-1.656;2022-07-23T04:14:50;24.50;78.40
26964;DHT22;14521;48.148;-1.656;2022-07-23T04:18:12;24.50;78.30
26964;DHT22;14521;48.148;-1.656;2022-07-23T04:21:46;24.40;78.20
26964;DHT22;14521;48.148;-1.656;2022-07-23T04:25:08;24.40;78.20
26964;DHT22;14521;48.148;-1.656;2022-07-23T04:28:31;24.40;78.20
26964;DHT22;14521;48.148;-1.656;2022-07-23T04:31:53;24.40;78.20
26964;DHT22;14521;48.148;-1.656;2022-07-23T04:35:16;24.40;78.20
26964;DHT22;14521;48.148;-1.656;2022-07-23T04:38:39;24.40;78.10
26964;DHT22;14521;48.148;-1.656;2022-07-23T04:42:01;24.40;78.20
26964;DHT22;14521;48.148;-1.656;2022-07-23T04:45:25;24.40;78.30
26964;DHT22;14521;48.148;-1.656;2022-07-23T04:48:51;24.30;78.20
26964;DHT22;14521;48.148;-1.656;2022-07-23T04:52:13;24.30;78.20
26964;DHT22;14521;48.148;-1.656;2022-07-23T04:55:37;24.30;78.10
26964;DHT22;14521;48.148;-1.656;2022-07-23T04:58:59;24.40;78.20
26964;DHT22;14521;48.148;-1.656;2022-07-23T05:02:23;24.30;78.10
26964;DHT22;14521;48.148;-1.656;2022-07-23T05:05:45;24.30;78.10
26964;DHT22;14521;48.148;-1.656;2022-07-23T05:09:10;24.30;78.00
26964;DHT22;14521;48.148;-1.656;2022-07-23T05:12:32;24.30;78.00
26964;DHT22;14521;48.148;-1.656;2022-07-23T05:15:55;24.30;78.00
26964;DHT22;14521;48.148;-1.656;2022-07-23T05:19:19;24.30;78.00
26964;DHT22;14521;48.148;-1.656;2022-07-23T05:22:46;24.30;77.90
26964;DHT22;14521;48.148;-1.656;2022-07-23T05:26:08;24.30;77.90
26964;DHT22;14521;48.148;-1.656;2022-07-23T05:29:30;24.30;77.90
26964;DHT22;14521;48.148;-1.656;2022-07-23T05:32:53;24.40;77.80
26964;DHT22;14521;48.148;-1.656;2022-07-23T05:36:15;24.30;77.80
26964;DHT22;14521;48.148;-1.656;2022-07-23T05:39:44;24.30;77.70
26964;DHT22;14521;48.148;-1.656;2022-07-23T05:43:07;24.30;77.80
26964;DHT22;14521;48.148;-1.656;2022-07-23T05:46:29;24.30;77.80
26964;DHT22;14521;48.148;-1.656;2022-07-23T05:49:58;24.30;77.80
26964;DHT22;14521;48.148;-1.656;2022-07-23T05:53:34;24.40;77.70
26964;DHT22;14521;48.148;-1.656;2022-07-23T05:57:09;24.30;77.70
26964;DHT22;14521;48.148;-1.656;2022-07-23T06:00:32;24.40;77.70
26964;DHT22;14521;48.148;-1.656;2022-07-23T06:03:54;24.40;77.60
26964;DHT22;14521;48.148;-1.656;2022-07-23T06:07:20;24.40;77.60
26964;DHT22;14521;48.148;-1.656;2022-07-23T06:10:42;24.40;77.60
26964;DHT22;14521;48.148;-1.656;2022-07-23T06:14:05;24.40;77.60
26964;DHT22;14521;48.148;-1.656;2022-07-23T06:17:48;24.30;77.70
26964;DHT22;14521;48.148;-1.656;2022-07-23T06:21:10;24.40;77.80
26964;DHT22;14521;48.148;-1.656;2022-07-23T06:24:52;24.30;77.80
26964;DHT22;14521;48.148;-1.656;2022-07-23T06:28:16;24.40;77.80
26964;DHT22;14521;48.148;-1.656;2022-07-23T06:31:38;24.40;77.70
26964;DHT22;14521;48.148;-1.656;2022-07-23T06:35:01;24.40;77.80
26964;DHT22;14521;48.148;-1.656;2022-07-23T06:38:23;24.40;77.90
26964;DHT22;14521;48.148;-1.656;2022-07-23T06:41:45;24.40;78.10
26964;DHT22;14521;48.148;-1.656;2022-07-23T06:45:12;24.40;78.40
26964;DHT22;14521;48.148;-1.656;2022-07-23T06:48:35;24.40;78.50
26964;DHT22;14521;48.148;-1.656;2022-07-23T06:51:58;24.40;78.70
26964;DHT22;14521;48.148;-1.656;2022-07-23T06:55:20;24.40;78.80
26964;DHT22;14521;48.148;-1.656;2022-07-23T06:58:42;24.40;78.90
26964;DHT22;14521;48.148;-1.656;2022-07-23T07:02:05;24.40;78.90
26964;DHT22;14521;48.148;-1.656;2022-07-23T07:05:27;24.40;79.00
26964;DHT22;14521;48.148;-1.656;2022-07-23T07:08:50;24.50;79.10
26964;DHT22;14521;48.148;-1.656;2022-07-23T07:12:12;24.50;79.20
26964;DHT22;14521;48.148;-1.656;2022-07-23T07:15:35;24.50;79.30
26964;DHT22;14521;48.148;-1.656;2022-07-23T07:18:57;24.60;79.20
26964;DHT22;14521;48.148;-1.656;2022-07-23T07:22:19;24.50;80.10
26964;DHT22;14521;48.148;-1.656;2022-07-23T07:25:42;24.60;79.30
26964;DHT22;14521;48.148;-1.656;2022-07-23T07:29:04;24.60;79.40
26964;DHT22;14521;48.148;-1.656;2022-07-23T07:32:27;24.60;79.50
26964;DHT22;14521;48.148;-1.656;2022-07-23T07:36:09;24.60;79.60
26964;DHT22;14521;48.148;-1.656;2022-07-23T07:39:38;24.60;80.00
26964;DHT22;14521;48.148;-1.656;2022-07-23T07:43:00;23.80;83.50
26964;DHT22;14521;48.148;-1.656;2022-07-23T07:46:25;23.20;86.50
26964;DHT22;14521;48.148;-1.656;2022-07-23T07:49:49;22.90;88.00
26964;DHT22;14521;48.148;-1.656;2022-07-23T07:53:11;23.20;88.70
26964;DHT22;14521;48.148;-1.656;2022-07-23T07:56:34;23.70;86.10
26964;DHT22;14521;48.148;-1.656;2022-07-23T07:59:57;24.00;85.20
26964;DHT22;14521;48.148;-1.656;2022-07-23T08:03:33;24.10;85.00
26964;DHT22;14521;48.148;-1.656;2022-07-23T08:06:57;24.30;84.70
26964;DHT22;14521;48.148;-1.656;2022-07-23T08:10:19;24.50;83.90
26964;DHT22;14521;48.148;-1.656;2022-07-23T08:13:42;24.60;82.90
26964;DHT22;14521;48.148;-1.656;2022-07-23T08:17:06;24.60;80.90
26964;DHT22;14521;48.148;-1.656;2022-07-23T08:20:36;24.70;80.60
26964;DHT22;14521;48.148;-1.656;2022-07-23T08:24:01;24.70;80.60
26964;DHT22;14521;48.148;-1.656;2022-07-23T08:27:25;24.80;80.40
26964;DHT22;14521;48.148;-1.656;2022-07-23T08:30:47;25.00;81.70
26964;DHT22;14521;48.148;-1.656;2022-07-23T08:34:10;25.10;81.60
26964;DHT22;14521;48.148;-1.656;2022-07-23T08:37:32;25.10;81.90
26964;DHT22;14521;48.148;-1.656;2022-07-23T08:40:55;25.20;81.20
26964;DHT22;14521;48.148;-1.656;2022-07-23T08:44:19;25.20;81.20
26964;DHT22;14521;48.148;-1.656;2022-07-23T08:47:43;25.20;80.90
26964;DHT22;14521;48.148;-1.656;2022-07-23T08:51:11;25.00;78.40
26964;DHT22;14521;48.148;-1.656;2022-07-23T08:54:34;24.60;80.00
26964;DHT22;14521;48.148;-1.656;2022-07-23T08:57:56;24.60;81.60
26964;DHT22;14521;48.148;-1.656;2022-07-23T09:01:19;24.80;81.50
26964;DHT22;14521;48.148;-1.656;2022-07-23T09:04:41;24.80;79.60
26964;DHT22;14521;48.148;-1.656;2022-07-23T09:08:22;24.90;80.90
26964;DHT22;14521;48.148;-1.656;2022-07-23T09:11:48;25.00;80.80
26964;DHT22;14521;48.148;-1.656;2022-07-23T09:15:23;25.10;80.70
26964;DHT22;14521;48.148;-1.656;2022-07-23T09:22:24;25.10;80.00
26964;DHT22;14521;48.148;-1.656;2022-07-23T09:25:49;25.20;80.10
26964;DHT22;14521;48.148;-1.656;2022-07-23T09:29:24;25.20;80.10
26964;DHT22;14521;48.148;-1.656;2022-07-23T09:33:06;25.20;80.20
26964;DHT22;14521;48.148;-1.656;2022-07-23T09:36:29;25.30;81.00
26964;DHT22;14521;48.148;-1.656;2022-07-23T09:40:04;25.30;80.70
26964;DHT22;14521;48.148;-1.656;2022-07-23T09:43:27;25.30;80.30
26964;DHT22;14521;48.148;-1.656;2022-07-23T09:46:59;25.30;80.00
26964;DHT22;14521;48.148;-1.656;2022-07-23T09:50:22;25.30;80.20
26964;DHT22;14521;48.148;-1.656;2022-07-23T09:53:48;25.30;80.70
26964;DHT22;14521;48.148;-1.656;2022-07-23T09:57:12;25.30;79.70
26964;DHT22;14521;48.148;-1.656;2022-07-23T10:00:40;25.30;79.40
26964;DHT22;14521;48.148;-1.656;2022-07-23T10:04:02;25.30;79.20
26964;DHT22;14521;48.148;-1.656;2022-07-23T10:07:52;25.40;79.40
26964;DHT22;14521;48.148;-1.656;2022-07-23T10:11:50;25.40;78.70
26964;DHT22;14521;48.148;-1.656;2022-07-23T10:15:34;25.40;77.40
26964;DHT22;14521;48.148;-1.656;2022-07-23T10:18:57;25.40;77.40
26964;DHT22;14521;48.148;-1.656;2022-07-23T10:22:22;25.40;78.00
26964;DHT22;14521;48.148;-1.656;2022-07-23T10:33:27;25.40;78.20
26964;DHT22;14521;48.148;-1.656;2022-07-23T10:37:21;25.40;78.30
26964;DHT22;14521;48.148;-1.656;2022-07-23T10:41:01;25.40;77.90
26964;DHT22;14521;48.148;-1.656;2022-07-23T10:44:24;25.40;77.30
26964;DHT22;14521;48.148;-1.656;2022-07-23T10:47:48;25.50;77.00
26964;DHT22;14521;48.148;-1.656;2022-07-23T10:51:15;25.50;76.70
26964;DHT22;14521;48.148;-1.656;2022-07-23T10:54:38;25.50;76.70
26964;DHT22;14521;48.148;-1.656;2022-07-23T10:58:05;25.50;76.70
26964;DHT22;14521;48.148;-1.656;2022-07-23T11:01:38;25.40;76.90
26964;DHT22;14521;48.148;-1.656;2022-07-23T11:05:06;25.40;75.60
26964;DHT22;14521;48.148;-1.656;2022-07-23T11:08:29;25.40;74.10
26964;DHT22;14521;48.148;-1.656;2022-07-23T11:19:23;25.30;73.00
26964;DHT22;14521;48.148;-1.656;2022-07-23T11:22:46;25.20;73.30
26964;DHT22;14521;48.148;-1.656;2022-07-23T11:26:09;25.20;73.20
26964;DHT22;14521;48.148;-1.656;2022-07-23T11:36:49;25.30;73.80
26964;DHT22;14521;48.148;-1.656;2022-07-23T11:40:14;25.40;74.30
26964;DHT22;14521;48.148;-1.656;2022-07-23T11:43:37;25.50;74.80
26964;DHT22;14521;48.148;-1.656;2022-07-23T11:47:05;25.50;74.80
26964;DHT22;14521;48.148;-1.656;2022-07-23T11:50:27;25.50;75.20
26964;DHT22;14521;48.148;-1.656;2022-07-23T11:53:50;25.60;75.50
26964;DHT22;14521;48.148;-1.656;2022-07-23T11:57:12;25.60;74.00
26964;DHT22;14521;48.148;-1.656;2022-07-23T12:00:34;25.60;73.40
26964;DHT22;14521;48.148;-1.656;2022-07-23T12:04:02;25.60;73.50
26964;DHT22;14521;48.148;-1.656;2022-07-23T12:07:34;25.60;73.30
26964;DHT22;14521;48.148;-1.656;2022-07-23T12:10:56;25.70;73.40
26964;DHT22;14521;48.148;-1.656;2022-07-23T12:14:19;25.70;73.60
26964;DHT22;14521;48.148;-1.656;2022-07-23T12:17:44;25.70;74.60
26964;DHT22;14521;48.148;-1.656;2022-07-23T12:21:12;25.80;75.50
26964;DHT22;14521;48.148;-1.656;2022-07-23T12:24:54;25.80;74.40
26964;DHT22;14521;48.148;-1.656;2022-07-23T12:28:22;25.80;74.60
26964;DHT22;14521;48.148;-1.656;2022-07-23T12:31:44;25.80;74.00
26964;DHT22;14521;48.148;-1.656;2022-07-23T12:35:08;25.80;75.00
26964;DHT22;14521;48.148;-1.656;2022-07-23T12:38:42;25.90;75.60
26964;DHT22;14521;48.148;-1.656;2022-07-23T12:42:11;25.90;74.70
26964;DHT22;14521;48.148;-1.656;2022-07-23T12:49:26;25.90;75.90
26964;DHT22;14521;48.148;-1.656;2022-07-23T12:53:08;25.90;76.00
26964;DHT22;14521;48.148;-1.656;2022-07-23T12:56:39;25.90;76.20
26964;DHT22;14521;48.148;-1.656;2022-07-23T13:00:09;25.90;76.20
26964;DHT22;14521;48.148;-1.656;2022-07-23T13:03:40;25.90;77.40
26964;DHT22;14521;48.148;-1.656;2022-07-23T13:07:04;25.90;84.80
26964;DHT22;14521;48.148;-1.656;2022-07-23T13:10:26;25.80;83.30
26964;DHT22;14521;48.148;-1.656;2022-07-23T13:13:49;25.80;82.20
26964;DHT22;14521;48.148;-1.656;2022-07-23T13:17:11;25.70;86.20
26964;DHT22;14521;48.148;-1.656;2022-07-23T13:20:34;25.60;88.50
26964;DHT22;14521;48.148;-1.656;2022-07-23T13:23:56;25.60;84.50
26964;DHT22;14521;48.148;-1.656;2022-07-23T13:27:19;25.60;88.60
26964;DHT22;14521;48.148;-1.656;2022-07-23T13:30:42;25.60;88.60
26964;DHT22;14521;48.148;-1.656;2022-07-23T13:34:05;25.60;90.20
26964;DHT22;14521;48.148;-1.656;2022-07-23T13:37:28;25.60;90.30
26964;DHT22;14521;48.148;-1.656;2022-07-23T13:40:52;25.60;85.20
26964;DHT22;14521;48.148;-1.656;2022-07-23T13:44:14;25.80;83.70
26964;DHT22;14521;48.148;-1.656;2022-07-23T13:47:36;25.80;86.70
26964;DHT22;14521;48.148;-1.656;2022-07-23T13:50:59;25.90;85.70
26964;DHT22;14521;48.148;-1.656;2022-07-23T13:54:22;25.80;76.50
26964;DHT22;14521;48.148;-1.656;2022-07-23T13:57:44;25.70;77.30
26964;DHT22;14521;48.148;-1.656;2022-07-23T14:01:06;25.70;79.30
26964;DHT22;14521;48.148;-1.656;2022-07-23T14:04:29;25.80;79.30
26964;DHT22;14521;48.148;-1.656;2022-07-23T14:07:51;25.80;78.50
26964;DHT22;14521;48.148;-1.656;2022-07-23T14:11:14;25.80;77.90
26964;DHT22;14521;48.148;-1.656;2022-07-23T14:14:37;25.80;78.10
26964;DHT22;14521;48.148;-1.656;2022-07-23T14:17:59;25.80;79.00
26964;DHT22;14521;48.148;-1.656;2022-07-23T14:21:22;25.80;77.20
26964;DHT22;14521;48.148;-1.656;2022-07-23T14:24:44;25.80;77.80
26964;DHT22;14521;48.148;-1.656;2022-07-23T14:28:06;25.90;78.30
26964;DHT22;14521;48.148;-1.656;2022-07-23T14:31:30;25.90;78.00
26964;DHT22;14521;48.148;-1.656;2022-07-23T14:34:52;25.90;78.50
26964;DHT22;14521;48.148;-1.656;2022-07-23T14:38:15;25.90;79.40
26964;DHT22;14521;48.148;-1.656;2022-07-23T14:41:37;25.90;81.40
26964;DHT22;14521;48.148;-1.656;2022-07-23T14:45:00;25.90;81.00
26964;DHT22;14521;48.148;-1.656;2022-07-23T14:48:30;25.90;78.80
26964;DHT22;14521;48.148;-1.656;2022-07-23T14:51:53;25.90;78.10
26964;DHT22;14521;48.148;-1.656;2022-07-23T14:55:15;26.00;77.90
26964;DHT22;14521;48.148;-1.656;2022-07-23T14:58:40;25.90;78.80
26964;DHT22;14521;48.148;-1.656;2022-07-23T15:02:02;25.90;78.30
26964;DHT22;14521;48.148;-1.656;2022-07-23T15:05:25;26.00;79.00
26964;DHT22;14521;48.148;-1.656;2022-07-23T15:08:48;25.90;79.70
26964;DHT22;14521;48.148;-1.656;2022-07-23T15:12:10;25.90;79.60
26964;DHT22;14521;48.148;-1.656;2022-07-23T15:15:34;25.90;79.80
26964;DHT22;14521;48.148;-1.656;2022-07-23T15:18:56;25.90;79.40
26964;DHT22;14521;48.148;-1.656;2022-07-23T15:22:19;25.90;79.80
26964;DHT22;14521;48.148;-1.656;2022-07-23T15:25:41;25.90;78.30
26964;DHT22;14521;48.148;-1.656;2022-07-23T15:29:11;25.90;79.60
26964;DHT22;14521;48.148;-1.656;2022-07-23T15:32:34;25.90;79.20
26964;DHT22;14521;48.148;-1.656;2022-07-23T15:35:56;25.90;79.30
26964;DHT22;14521;48.148;-1.656;2022-07-23T15:39:20;25.90;79.50
26964;DHT22;14521;48.148;-1.656;2022-07-23T15:42:43;26.00;78.80
26964;DHT22;14521;48.148;-1.656;2022-07-23T15:46:05;26.00;79.00
26964;DHT22;14521;48.148;-1.656;2022-07-23T15:49:31;25.90;78.30
26964;DHT22;14521;48.148;-1.656;2022-07-23T15:52:53;26.00;78.60
26964;DHT22;14521;48.148;-1.656;2022-07-23T15:56:16;26.00;78.40
26964;DHT22;14521;48.148;-1.656;2022-07-23T15:59:40;26.00;78.70
26964;DHT22;14521;48.148;-1.656;2022-07-23T16:03:02;26.00;78.90
26964;DHT22;14521;48.148;-1.656;2022-07-23T16:06:28;26.00;78.60
26964;DHT22;14521;48.148;-1.656;2022-07-23T16:09:51;26.00;77.60
26964;DHT22;14521;48.148;-1.656;2022-07-23T16:13:14;26.00;77.70
26964;DHT22;14521;48.148;-1.656;2022-07-23T16:16:37;26.00;78.20
26964;DHT22;14521;48.148;-1.656;2022-07-23T16:20:00;26.00;77.60
26964;DHT22;14521;48.148;-1.656;2022-07-23T16:23:26;26.00;78.20
26964;DHT22;14521;48.148;-1.656;2022-07-23T16:26:49;26.00;77.40
26964;DHT22;14521;48.148;-1.656;2022-07-23T16:30:12;26.00;77.90
26964;DHT22;14521;48.148;-1.656;2022-07-23T16:33:35;26.10;78.30
26964;DHT22;14521;48.148;-1.656;2022-07-23T16:36:57;26.00;77.60
26964;DHT22;14521;48.148;-1.656;2022-07-23T16:40:19;26.00;77.50
26964;DHT22;14521;48.148;-1.656;2022-07-23T16:43:42;26.00;77.00
26964;DHT22;14521;48.148;-1.656;2022-07-23T16:47:04;26.00;76.90
26964;DHT22;14521;48.148;-1.656;2022-07-23T16:50:28;26.00;77.00
26964;DHT22;14521;48.148;-1.656;2022-07-23T16:53:50;26.00;77.40
26964;DHT22;14521;48.148;-1.656;2022-07-23T16:57:13;26.00;76.80
26964;DHT22;14521;48.148;-1.656;2022-07-23T17:00:35;26.10;76.40
26964;DHT22;14521;48.148;-1.656;2022-07-23T17:03:58;26.10;75.60
26964;DHT22;14521;48.148;-1.656;2022-07-23T17:07:20;26.20;74.20
26964;DHT22;14521;48.148;-1.656;2022-07-23T17:10:42;26.20;74.00
26964;DHT22;14521;48.148;-1.656;2022-07-23T17:14:06;26.20;74.80
26964;DHT22;14521;48.148;-1.656;2022-07-23T17:17:29;26.20;72.80
26964;DHT22;14521;48.148;-1.656;2022-07-23T17:20:52;26.30;72.30
26964;DHT22;14521;48.148;-1.656;2022-07-23T17:24:14;26.30;70.30
26964;DHT22;14521;48.148;-1.656;2022-07-23T17:27:37;26.30;72.00
26964;DHT22;14521;48.148;-1.656;2022-07-23T17:30:59;26.30;71.90
26964;DHT22;14521;48.148;-1.656;2022-07-23T17:34:21;26.40;72.40
26964;DHT22;14521;48.148;-1.656;2022-07-23T17:37:44;26.40;72.40
26964;DHT22;14521;48.148;-1.656;2022-07-23T17:41:06;26.40;71.60
26964;DHT22;14521;48.148;-1.656;2022-07-23T17:44:28;26.40;70.30
26964;DHT22;14521;48.148;-1.656;2022-07-23T17:47:51;26.50;71.60
26964;DHT22;14521;48.148;-1.656;2022-07-23T17:51:13;26.40;70.80
26964;DHT22;14521;48.148;-1.656;2022-07-23T17:54:36;26.50;72.60
26964;DHT22;14521;48.148;-1.656;2022-07-23T17:57:58;26.50;71.80
26964;DHT22;14521;48.148;-1.656;2022-07-23T18:01:22;26.50;71.60
26964;DHT22;14521;48.148;-1.656;2022-07-23T18:04:44;26.50;70.60
26964;DHT22;14521;48.148;-1.656;2022-07-23T18:08:07;26.60;70.60
26964;DHT22;14521;48.148;-1.656;2022-07-23T18:11:29;26.50;70.50
26964;DHT22;14521;48.148;-1.656;2022-07-23T18:14:51;26.50;70.00
26964;DHT22;14521;48.148;-1.656;2022-07-23T18:18:14;26.60;70.30
26964;DHT22;14521;48.148;-1.656;2022-07-23T18:21:36;26.60;69.00
26964;DHT22;14521;48.148;-1.656;2022-07-23T18:24:58;26.60;68.10
26964;DHT22;14521;48.148;-1.656;2022-07-23T18:28:21;26.70;69.60
26964;DHT22;14521;48.148;-1.656;2022-07-23T18:31:43;26.70;69.60
26964;DHT22;14521;48.148;-1.656;2022-07-23T18:35:07;26.60;69.60
26964;DHT22;14521;48.148;-1.656;2022-07-23T18:38:31;26.60;69.10
26964;DHT22;14521;48.148;-1.656;2022-07-23T18:42:01;26.60;70.50
26964;DHT22;14521;48.148;-1.656;2022-07-23T18:45:28;26.50;69.90
26964;DHT22;14521;48.148;-1.656;2022-07-23T18:48:51;26.60;67.90
26964;DHT22;14521;48.148;-1.656;2022-07-23T18:52:13;26.60;70.00
26964;DHT22;14521;48.148;-1.656;2022-07-23T18:55:37;26.60;67.50
26964;DHT22;14521;48.148;-1.656;2022-07-23T18:59:02;26.60;67.50
26964;DHT22;14521;48.148;-1.656;2022-07-23T19:02:25;26.60;68.10
26964;DHT22;14521;48.148;-1.656;2022-07-23T19:05:48;26.60;68.70
26964;DHT22;14521;48.148;-1.656;2022-07-23T19:09:10;26.60;68.30
26964;DHT22;14521;48.148;-1.656;2022-07-23T19:12:33;26.60;67.90
26964;DHT22;14521;48.148;-1.656;2022-07-23T19:15:55;26.60;67.00
26964;DHT22;14521;48.148;-1.656;2022-07-23T19:19:19;26.60;68.80
26964;DHT22;14521;48.148;-1.656;2022-07-23T19:22:42;26.50;69.80
26964;DHT22;14521;48.148;-1.656;2022-07-23T19:26:05;26.50;70.40
26964;DHT22;14521;48.148;-1.656;2022-07-23T19:29:30;26.50;70.60
26964;DHT22;14521;48.148;-1.656;2022-07-23T19:32:55;26.40;70.70
26964;DHT22;14521;48.148;-1.656;2022-07-23T19:36:18;26.40;71.00
26964;DHT22;14521;48.148;-1.656;2022-07-23T19:39:42;26.30;71.40
26964;DHT22;14521;48.148;-1.656;2022-07-23T19:43:04;26.20;71.40
26964;DHT22;14521;48.148;-1.656;2022-07-23T19:46:27;26.10;71.70
26964;DHT22;14521;48.148;-1.656;2022-07-23T19:49:49;26.10;72.10
26964;DHT22;14521;48.148;-1.656;2022-07-23T19:53:11;26.00;72.70
26964;DHT22;14521;48.148;-1.656;2022-07-23T19:56:34;26.00;73.40
26964;DHT22;14521;48.148;-1.656;2022-07-23T19:59:56;26.10;73.10
26964;DHT22;14521;48.148;-1.656;2022-07-23T20:03:18;26.10;73.00
26964;DHT22;14521;48.148;-1.656;2022-07-23T20:06:41;26.10;73.80
26964;DHT22;14521;48.148;-1.656;2022-07-23T20:10:05;26.10;73.40
26964;DHT22;14521;48.148;-1.656;2022-07-23T20:13:28;26.10;73.30
26964;DHT22;14521;48.148;-1.656;2022-07-23T20:16:54;26.00;73.50
26964;DHT22;14521;48.148;-1.656;2022-07-23T20:20:16;26.10;74.40
26964;DHT22;14521;48.148;-1.656;2022-07-23T20:23:39;26.00;74.30
26964;DHT22;14521;48.148;-1.656;2022-07-23T20:27:01;26.00;74.10
26964;DHT22;14521;48.148;-1.656;2022-07-23T20:30:25;26.00;74.30
26964;DHT22;14521;48.148;-1.656;2022-07-23T20:33:47;26.00;74.40
26964;DHT22;14521;48.148;-1.656;2022-07-23T20:37:10;25.90;74.30
26964;DHT22;14521;48.148;-1.656;2022-07-23T20:40:33;25.90;74.30
26964;DHT22;14521;48.148;-1.656;2022-07-23T20:43:55;25.90;74.50
26964;DHT22;14521;48.148;-1.656;2022-07-23T20:47:17;25.90;74.70
26964;DHT22;14521;48.148;-1.656;2022-07-23T20:50:40;25.90;74.70
26964;DHT22;14521;48.148;-1.656;2022-07-23T20:54:03;25.80;74.80
26964;DHT22;14521;48.148;-1.656;2022-07-23T20:57:26;25.80;75.10
26964;DHT22;14521;48.148;-1.656;2022-07-23T21:00:50;25.80;75.20
26964;DHT22;14521;48.148;-1.656;2022-07-23T21:04:12;25.80;75.20
26964;DHT22;14521;48.148;-1.656;2022-07-23T21:07:34;25.80;75.20
26964;DHT22;14521;48.148;-1.656;2022-07-23T21:10:56;25.80;75.20
26964;DHT22;14521;48.148;-1.656;2022-07-23T21:14:19;25.90;75.20
26964;DHT22;14521;48.148;-1.656;2022-07-23T21:17:41;25.90;75.20
26964;DHT22;14521;48.148;-1.656;2022-07-23T21:21:07;25.90;75.00
26964;DHT22;14521;48.148;-1.656;2022-07-23T21:24:30;25.90;74.90
26964;DHT22;14521;48.148;-1.656;2022-07-23T21:27:52;25.90;74.70
26964;DHT22;14521;48.148;-1.656;2022-07-23T21:31:14;25.90;75.00
26964;DHT22;14521;48.148;-1.656;2022-07-23T21:34:36;25.80;75.10
26964;DHT22;14521;48.148;-1.656;2022-07-23T21:37:59;25.70;75.30
26964;DHT22;14521;48.148;-1.656;2022-07-23T21:41:21;25.60;75.60